Ashland, ME

10:37 PM EDT on August 04, 2015 (GMT -0400)
Clayton Lake | | Change Station
CLOSE
Current Station
Airport
Location: Clayton Lake,
Elevation: 1030 ft
Nearby Weather Stations

Elev 1030 ft 46.62 °N, 69.53 °W | Updated 17 minutes ago

Mostly Cloudy
Mostly Cloudy
62 °F
Feels Like 62 °F
N
4
Wind Variable Wind from Variable
Gusts mph

Today
High -- | Low -- °F
--% Chance of Precip.
Yesterday
High -- | Low -- °F
Precip. -- in
5:22 AM 8:05 PM
Waning Gibbous, 72% visible
Pressure 29.78 in
Visibility -9999.0 miles
Clouds
Dew Point 57 °F
Humidity 86%
Rainfall 0.03 in
Snow Depth Not available.
UV Not available.
Pollen 4.20 out of 12
Air Quality Not available.
Flu Activity Not available.
METAR K40B 050220Z AUTO VRB03KT 16/14 A2980 RMK AO1 SLP082 T01650141 52012 P0000

More Conditions Fewer Conditions

Pressure 29.78 in
Visibility -9999.0 miles
Clouds
Dew Point 57 °F
Humidity 86%
Rainfall 0.03 in
Snow Depth Not available.
UV Not available.
Pollen 4.20 out of 12
Air Quality Not available.
Flu Activity Not available.
METAR K40B 050220Z AUTO VRB03KT 16/14 A2980 RMK AO1 SLP082 T01650141 52012 P0000

More Conditions Fewer Conditions

10-Day Weather Forecast

×

Almanac

Astronomy

Aug. 04, 2015 Rise Set
Actual Time
Civil Twilight
Nautical Twilight
Astronomical Twilight
Moon
Length of Visible Light
Length of Day
Tomorrow will be .
, % of the Moon is Illuminated

Today's Extremes

State Highs State Lows

Community

WunderPhotos

Upload Photos

1,844,087 photos uploaded!

WunderBlogs® & News

Nearby

Air Quality

  Air Quality AQ Index Pollutant
Not available.

Snow Depth

Station Depth Elevation

Earthquake Activity

City Distance Mag. Time & Date
Minimum magnitude displayed is 2.5.

Coastal Water Temperatures

Place Temperature

Stations

Nearby Weather Stations

Station Location Temp. Windchill Dew Point Humidity Wind Precip. Elev Updated Type